Time;durP1;ratioP1;P1;durP2;ratioP2;P2;SDS_P1;SDS_P2;PMS_P1;PMS_P2;Temp;Humidity;BMP_temperature;BMP_pressure;BME280_temperature;BME280_humidity;BME280_pressure;Samples;Min_cycle;Max_cycle;Signal;HPM_P1;HPM_P2
2022/06/06 00:00:34;;;;;;;1.90;0.70;;;20.10;99.90;;;;;;6328956;28;20295;-64
2022/06/06 00:03:38;;;;;;;0.70;0.60;;;20.10;99.90;;;;;;6327712;28;20784;-64
2022/06/06 00:06:43;;;;;;;1.67;0.50;;;20.10;99.90;;;;;;6327256;28;20659;-64
2022/06/06 00:09:46;;;;;;;3.13;1.00;;;20.10;99.90;;;;;;6327625;28;20226;-64
2022/06/06 00:12:49;;;;;;;0.87;0.67;;;20.20;99.90;;;;;;6326898;28;20566;-64
2022/06/06 00:15:53;;;;;;;1.63;0.73;;;20.20;99.90;;;;;;6329702;28;20240;-64
2022/06/06 00:18:57;;;;;;;2.20;0.70;;;20.20;99.90;;;;;;6327462;28;20705;-64
2022/06/06 00:22:01;;;;;;;1.67;0.67;;;20.30;99.90;;;;;;6326915;28;20309;-63
2022/06/06 00:25:04;;;;;;;0.97;0.70;;;20.30;99.90;;;;;;6325658;28;20569;-65
2022/06/06 00:28:08;;;;;;;1.07;0.97;;;20.50;99.90;;;;;;6326323;28;20236;-66
2022/06/06 00:34:52;;;;;;;2.70;1.00;;;20.70;99.90;;;;;;6326780;28;20227;-66
2022/06/06 00:37:57;;;;;;;0.70;0.70;;;20.70;99.90;;;;;;6326691;28;20558;-65
2022/06/06 00:41:00;;;;;;;1.20;0.70;;;20.60;99.90;;;;;;6326756;28;20198;-65
2022/06/06 00:44:05;;;;;;;1.47;0.63;;;20.50;99.90;;;;;;6326436;28;20695;-64
2022/06/06 00:47:16;;;;;;;0.97;0.60;;;20.50;99.90;;;;;;6326616;28;20211;-66
2022/06/06 00:50:25;;;;;;;2.10;0.57;;;20.60;99.90;;;;;;6321394;28;20671;-65
2022/06/06 00:53:37;;;;;;;2.50;0.80;;;20.60;99.90;;;;;;6326110;28;20242;-66
2022/06/06 00:56:49;;;;;;;1.20;0.83;;;20.50;99.90;;;;;;6326071;28;20231;-65
2022/06/06 00:59:54;;;;;;;1.17;0.87;;;20.40;99.90;;;;;;6325828;28;20832;-64
2022/06/06 01:03:01;;;;;;;1.00;0.50;;;20.40;99.90;;;;;;6319713;28;20336;-64
2022/06/06 01:06:07;;;;;;;1.30;0.90;;;20.50;99.90;;;;;;6315736;28;20242;-64
2022/06/06 01:09:11;;;;;;;2.37;0.70;;;20.40;99.90;;;;;;6323970;28;20231;-64
2022/06/06 01:12:18;;;;;;;2.07;1.37;;;20.30;99.90;;;;;;6323876;28;20245;-64
2022/06/06 01:15:25;;;;;;;2.80;1.03;;;20.20;99.90;;;;;;6324405;28;20230;-64
2022/06/06 01:18:38;;;;;;;2.23;1.03;;;20.20;99.90;;;;;;6325453;28;20227;-65
2022/06/06 01:22:08;;;;;;;1.20;1.00;;;20.20;99.90;;;;;;6325497;28;20245;-65
2022/06/06 01:25:50;;;;;;;1.73;1.20;;;20.10;99.90;;;;;;6325451;28;20237;-65
2022/06/06 01:29:03;;;;;;;1.43;0.77;;;20.10;99.90;;;;;;6325858;28;20246;-64
2022/06/06 01:32:10;;;;;;;1.83;0.90;;;20.00;99.90;;;;;;6325098;28;20296;-65
2022/06/06 01:35:23;;;;;;;1.40;0.80;;;20.00;99.90;;;;;;6325306;28;20187;-65
2022/06/06 01:38:26;;;;;;;3.23;0.97;;;19.90;99.90;;;;;;6324718;28;20237;-65
2022/06/06 01:41:37;;;;;;;1.23;1.13;;;19.80;99.90;;;;;;6325232;28;20230;-65
2022/06/06 01:44:48;;;;;;;2.60;1.10;;;19.80;99.90;;;;;;6324805;28;20230;-65
2022/06/06 01:47:56;;;;;;;7.20;1.33;;;19.80;99.90;;;;;;6325271;28;20230;-65
2022/06/06 01:51:00;;;;;;;1.43;1.13;;;19.80;99.90;;;;;;6325009;28;20236;-65
2022/06/06 01:54:03;;;;;;;3.10;1.13;;;19.80;99.90;;;;;;6321425;28;20328;-65
2022/06/06 01:57:10;;;;;;;5.50;1.60;;;19.70;99.90;;;;;;6327958;28;20672;-65
2022/06/06 02:00:16;;;;;;;2.20;1.20;;;19.70;99.90;;;;;;6325177;28;20251;-65
2022/06/06 02:03:20;;;;;;;1.27;0.90;;;19.70;99.90;;;;;;6324443;28;20675;-65
2022/06/06 02:06:24;;;;;;;1.20;0.77;;;19.70;99.90;;;;;;6324415;28;20747;-65
2022/06/06 02:09:31;;;;;;;1.07;0.87;;;19.60;99.90;;;;;;6324279;28;20240;-65
2022/06/06 02:12:35;;;;;;;2.30;0.97;;;19.70;99.90;;;;;;6324095;28;20435;-65
2022/06/06 02:15:40;;;;;;;2.20;1.30;;;19.70;99.90;;;;;;6324630;28;20230;-65
2022/06/06 02:18:43;;;;;;;1.47;1.20;;;19.70;99.90;;;;;;6324578;28;20233;-65
2022/06/06 02:21:46;;;;;;;1.43;1.10;;;19.70;99.90;;;;;;6324436;28;20249;-65
2022/06/06 02:24:50;;;;;;;1.20;1.00;;;19.60;99.90;;;;;;6324307;28;20226;-65
2022/06/06 02:27:54;;;;;;;1.67;1.00;;;19.70;99.90;;;;;;6323859;28;20659;-65
2022/06/06 02:30:59;;;;;;;1.70;1.30;;;19.60;99.90;;;;;;6324236;28;20664;-65
2022/06/06 02:34:02;;;;;;;1.43;1.27;;;19.60;99.90;;;;;;6324159;28;20241;-65
2022/06/06 02:37:06;;;;;;;3.60;1.60;;;19.60;99.90;;;;;;6324037;28;20229;-65
2022/06/06 02:40:12;;;;;;;1.70;1.30;;;19.60;99.90;;;;;;6324525;28;20222;-65
2022/06/06 02:43:15;;;;;;;1.67;1.30;;;19.50;99.90;;;;;;6324287;28;20234;-65
2022/06/06 02:46:19;;;;;;;3.30;1.10;;;19.50;99.90;;;;;;6324306;28;20698;-64
2022/06/06 02:49:22;;;;;;;1.77;1.60;;;19.40;99.90;;;;;;6327680;28;20234;-64
2022/06/06 02:52:26;;;;;;;1.37;1.20;;;19.40;99.90;;;;;;6329164;28;20242;-64
2022/06/06 02:55:31;;;;;;;1.33;0.97;;;19.50;99.90;;;;;;6329430;28;20236;-64
2022/06/06 02:58:35;;;;;;;1.90;1.60;;;19.50;99.90;;;;;;6320174;28;20232;-64
2022/06/06 03:01:39;;;;;;;1.50;1.40;;;19.50;99.90;;;;;;6329254;28;20235;-65
2022/06/06 03:04:42;;;;;;;1.80;1.03;;;19.50;99.90;;;;;;6329079;28;20230;-65
2022/06/06 03:08:02;;;;;;;2.23;1.23;;;19.50;99.90;;;;;;6328848;28;20230;-65
2022/06/06 03:11:22;;;;;;;3.27;1.60;;;19.50;99.90;;;;;;6329136;28;20202;-65
2022/06/06 03:14:58;;;;;;;1.80;1.50;;;19.50;99.90;;;;;;6328740;28;20219;-65
2022/06/06 03:21:46;;;;;;;2.53;1.30;;;19.50;99.90;;;;;;6328778;28;20664;-65
2022/06/06 03:25:01;;;;;;;2.20;1.30;;;19.40;99.90;;;;;;6328752;28;20231;-65
2022/06/06 03:28:13;;;;;;;3.20;1.07;;;19.50;99.90;;;;;;6327871;28;20227;-65
2022/06/06 03:31:29;;;;;;;1.40;1.23;;;19.50;99.90;;;;;;6328273;28;20222;-65
2022/06/06 03:34:42;;;;;;;3.83;1.27;;;19.40;99.90;;;;;;6328311;28;20578;-65
2022/06/06 03:37:52;;;;;;;1.20;1.10;;;19.50;99.90;;;;;;6327942;28;20233;-65
2022/06/06 03:41:06;;;;;;;2.17;1.30;;;19.50;99.90;;;;;;6328445;28;20222;-65
2022/06/06 03:44:21;;;;;;;3.87;1.57;;;19.40;99.90;;;;;;6328348;28;20230;-65
2022/06/06 03:47:36;;;;;;;1.40;1.07;;;19.30;99.90;;;;;;6328530;28;20219;-65
2022/06/06 03:50:48;;;;;;;1.40;1.30;;;19.30;99.90;;;;;;6328281;28;20237;-65
2022/06/06 03:54:01;;;;;;;1.97;1.60;;;19.40;99.90;;;;;;6327728;28;20234;-65
2022/06/06 03:57:13;;;;;;;1.93;1.67;;;19.50;99.90;;;;;;6327994;28;20226;-65
2022/06/06 04:00:16;;;;;;;2.87;1.33;;;19.50;99.90;;;;;;6317422;28;20230;-65
2022/06/06 04:03:20;;;;;;;2.20;1.60;;;19.60;99.90;;;;;;6327635;28;20238;-65
2022/06/06 04:06:28;;;;;;;2.10;1.50;;;19.60;99.90;;;;;;6327335;28;20258;-65
2022/06/06 04:09:33;;;;;;;1.80;1.30;;;19.70;99.90;;;;;;6327273;28;20691;-65
2022/06/06 04:12:53;;;;;;;2.33;1.30;;;19.70;99.90;;;;;;6326895;28;20686;-65
2022/06/06 04:16:05;;;;;;;3.10;1.60;;;19.80;99.90;;;;;;6327808;28;20236;-65
2022/06/06 04:19:29;;;;;;;1.73;1.53;;;19.90;99.90;;;;;;6327127;28;20228;-65
2022/06/06 04:22:45;;;;;;;1.83;1.43;;;19.90;99.90;;;;;;6327276;28;20230;-65
2022/06/06 04:25:59;;;;;;;4.53;1.47;;;20.00;99.90;;;;;;6326823;28;20233;-65
2022/06/06 04:29:10;;;;;;;2.77;1.53;;;20.10;99.90;;;;;;6326854;28;20219;-65
2022/06/06 04:32:25;;;;;;;2.10;1.50;;;20.20;99.90;;;;;;6327562;28;20226;-65
2022/06/06 04:35:33;;;;;;;1.90;1.30;;;20.20;99.90;;;;;;6327006;28;20344;-65
2022/06/06 04:38:45;;;;;;;2.00;1.20;;;20.30;99.90;;;;;;6326718;28;20241;-65
2022/06/06 04:41:57;;;;;;;6.00;1.30;;;20.30;99.90;;;;;;6326316;28;20227;-65
2022/06/06 04:45:07;;;;;;;1.77;1.47;;;20.20;99.90;;;;;;6326672;28;20231;-65
2022/06/06 04:48:11;;;;;;;2.17;1.40;;;20.20;99.90;;;;;;6326392;28;20226;-65
2022/06/06 04:51:19;;;;;;;1.73;1.30;;;20.20;99.90;;;;;;6326594;28;20234;-65
2022/06/06 04:54:25;;;;;;;2.70;1.70;;;20.10;99.90;;;;;;6326008;28;20248;-65
2022/06/06 04:57:30;;;;;;;1.73;1.63;;;20.20;99.90;;;;;;6326467;28;20235;-65
2022/06/06 05:00:36;;;;;;;2.23;1.30;;;20.10;99.90;;;;;;6326203;28;20226;-65
2022/06/06 05:03:39;;;;;;;3.73;1.37;;;20.10;99.90;;;;;;6326122;28;20603;-65
2022/06/06 05:07:25;;;;;;;2.80;1.57;;;20.10;99.90;;;;;;6326205;28;20226;-65
2022/06/06 05:10:45;;;;;;;1.60;1.20;;;20.10;99.90;;;;;;6325923;28;20245;-65
2022/06/06 05:14:07;;;;;;;2.27;2.07;;;20.20;99.90;;;;;;6325603;28;20231;-65
2022/06/06 05:17:36;;;;;;;1.83;1.53;;;20.30;99.90;;;;;;6318163;28;20206;-65
2022/06/06 05:20:58;;;;;;;1.73;1.40;;;20.40;99.90;;;;;;6325819;28;20230;-65
2022/06/06 05:24:14;;;;;;;2.30;1.33;;;20.50;99.90;;;;;;6325618;28;20253;-65
2022/06/06 05:27:33;;;;;;;2.20;1.43;;;20.50;99.90;;;;;;6325693;28;20237;-65
2022/06/06 05:30:46;;;;;;;4.23;1.60;;;20.60;99.90;;;;;;6325588;28;20246;-65
2022/06/06 05:33:56;;;;;;;3.00;1.63;;;20.60;99.90;;;;;;6325189;28;20234;-65
2022/06/06 05:37:17;;;;;;;2.73;1.43;;;20.70;99.90;;;;;;6325604;28;20538;-65
2022/06/06 05:40:35;;;;;;;1.70;1.60;;;20.80;99.90;;;;;;6325395;28;20226;-65
2022/06/06 05:43:48;;;;;;;6.10;1.60;;;20.80;99.90;;;;;;6325511;28;20253;-65
2022/06/06 05:47:01;;;;;;;1.83;1.50;;;21.10;99.90;;;;;;6325293;28;20667;-65
2022/06/06 05:50:29;;;;;;;1.30;1.20;;;21.20;99.90;;;;;;6325104;28;20219;-65
2022/06/06 05:53:52;;;;;;;1.60;1.43;;;21.40;99.90;;;;;;6324889;28;20685;-64
2022/06/06 05:57:25;;;;;;;3.57;1.83;;;21.60;99.90;;;;;;6325011;28;20309;-64
2022/06/06 06:00:42;;;;;;;1.63;1.53;;;21.90;99.90;;;;;;6325272;28;20237;-64
2022/06/06 06:04:08;;;;;;;2.27;1.80;;;22.30;99.90;;;;;;6324899;28;20238;-64
2022/06/06 06:07:22;;;;;;;2.90;1.70;;;22.60;99.90;;;;;;6315364;28;20313;-64
2022/06/06 06:10:34;;;;;;;2.30;1.43;;;22.70;99.90;;;;;;6324572;28;20237;-65
2022/06/06 06:13:50;;;;;;;2.70;1.73;;;23.00;99.90;;;;;;6325051;28;20321;-64
2022/06/06 06:17:03;;;;;;;2.43;1.63;;;23.40;99.90;;;;;;6324713;28;20226;-64
2022/06/06 06:20:10;;;;;;;1.67;1.57;;;23.40;99.90;;;;;;6324618;28;20222;-65
2022/06/06 06:23:19;;;;;;;2.27;1.63;;;23.40;99.90;;;;;;6324069;28;20226;-65
2022/06/06 06:26:22;;;;;;;2.40;1.63;;;23.40;99.90;;;;;;6324622;28;20222;-65
2022/06/06 06:29:26;;;;;;;4.00;1.47;;;23.40;99.90;;;;;;6324903;28;20226;-65
2022/06/06 06:32:47;;;;;;;3.60;1.73;;;23.20;99.90;;;;;;6324494;28;20231;-65
2022/06/06 06:36:02;;;;;;;2.10;1.43;;;23.60;99.60;;;;;;6324689;28;20234;-65
2022/06/06 06:39:26;;;;;;;1.57;1.30;;;23.90;99.50;;;;;;6324158;28;20230;-65
2022/06/06 06:42:44;;;;;;;2.10;1.40;;;24.40;98.60;;;;;;6324129;28;20234;-65
2022/06/06 06:45:54;;;;;;;2.00;1.30;;;24.50;98.00;;;;;;6324363;28;20581;-65
2022/06/06 06:49:09;;;;;;;2.43;1.40;;;24.70;97.80;;;;;;6324197;28;20226;-65
2022/06/06 06:52:26;;;;;;;1.30;1.20;;;24.60;97.80;;;;;;6324113;28;20313;-65
2022/06/06 06:55:40;;;;;;;2.17;1.30;;;24.00;98.10;;;;;;6324019;28;20692;-65
2022/06/06 06:58:53;;;;;;;2.20;1.40;;;24.00;98.40;;;;;;6324400;28;20241;-65
2022/06/06 07:09:19;;;;;;;1.70;1.40;;;24.60;97.80;;;;;;6319472;28;20230;-64
2022/06/06 07:12:37;;;;;;;2.40;1.30;;;24.90;97.00;;;;;;6323427;28;20742;-64
2022/06/06 07:15:47;;;;;;;1.70;1.50;;;25.10;97.00;;;;;;6323901;28;20240;-64
2022/06/06 07:18:59;;;;;;;1.30;1.13;;;26.20;95.40;;;;;;6323335;28;20740;-65
2022/06/06 07:22:05;;;;;;;2.23;1.43;;;27.10;94.10;;;;;;6320026;28;20543;-65
2022/06/06 07:25:09;;;;;;;2.40;1.43;;;27.50;92.50;;;;;;6305878;28;20224;-65
2022/06/06 07:28:15;;;;;;;1.90;1.60;;;27.70;92.10;;;;;;6322559;28;20225;-65
2022/06/06 07:31:28;;;;;;;3.00;1.50;;;28.10;91.10;;;;;;6322109;28;20229;-65
2022/06/06 07:34:58;;;;;;;2.10;1.70;;;28.00;91.40;;;;;;6307469;28;20667;-65
2022/06/06 07:38:13;;;;;;;2.00;1.67;;;28.80;89.90;;;;;;6302960;28;20563;-65
2022/06/06 07:41:29;;;;;;;1.97;1.50;;;29.20;86.00;;;;;;6306097;28;20187;-65
2022/06/06 07:44:58;;;;;;;3.67;1.40;;;29.50;84.70;;;;;;6303002;28;20543;-65
2022/06/06 07:48:25;;;;;;;2.00;1.50;;;29.80;82.50;;;;;;6302869;28;20226;-65
2022/06/06 07:51:38;;;;;;;2.30;1.40;;;30.10;80.80;;;;;;6309374;28;20222;-66
2022/06/06 07:54:52;;;;;;;1.80;1.30;;;30.10;80.50;;;;;;6315944;28;20234;-66
2022/06/06 07:58:05;;;;;;;3.00;1.43;;;30.00;78.40;;;;;;6325996;28;20218;-66
2022/06/06 08:01:14;;;;;;;1.70;1.60;;;30.20;78.30;;;;;;6315952;28;20225;-66
2022/06/06 08:04:26;;;;;;;1.83;0.93;;;30.00;77.00;;;;;;6314975;28;20226;-66
2022/06/06 08:07:39;;;;;;;2.50;1.37;;;29.20;78.00;;;;;;6325126;28;20222;-66
2022/06/06 08:10:45;;;;;;;2.20;1.07;;;28.60;80.50;;;;;;6315700;28;20237;-66
2022/06/06 08:14:15;;;;;;;2.10;1.37;;;28.40;79.90;;;;;;6316765;28;20233;-66
2022/06/06 08:17:26;;;;;;;1.57;1.47;;;28.40;81.00;;;;;;6323946;28;20236;-66
2022/06/06 08:20:38;;;;;;;3.30;1.13;;;28.20;81.70;;;;;;6321421;28;20535;-66
2022/06/06 08:23:43;;;;;;;2.50;1.63;;;28.20;81.00;;;;;;6324187;28;20687;-66
2022/06/06 08:26:51;;;;;;;2.00;1.10;;;27.80;82.90;;;;;;6313777;28;20222;-66
2022/06/06 08:29:54;;;;;;;1.40;1.30;;;27.40;85.00;;;;;;6302599;28;20237;-66
2022/06/06 08:32:58;;;;;;;2.80;1.50;;;27.20;84.70;;;;;;6301617;28;20237;-66
2022/06/06 08:36:15;;;;;;;2.20;1.60;;;26.90;86.50;;;;;;6301702;28;20257;-66
2022/06/06 08:39:28;;;;;;;3.20;1.60;;;26.70;88.40;;;;;;6301893;28;20310;-66
2022/06/06 08:42:43;;;;;;;1.77;1.40;;;26.90;88.40;;;;;;6301421;28;20234;-67
2022/06/06 08:46:00;;;;;;;3.30;1.17;;;26.90;88.30;;;;;;6315561;28;20222;-66
2022/06/06 08:50:44;;;;;;;2.57;1.60;;;26.80;89.20;;;;;;6326472;28;20576;-66
2022/06/06 08:53:20;;;;;;;2.47;1.80;;;26.80;88.80;;;;;;6325938;28;20242;-66
2022/06/06 08:56:37;;;;;;;2.00;1.70;;;27.10;88.40;;;;;;6326216;28;20233;-66
2022/06/06 09:00:17;;;;;;;2.97;1.73;;;27.10;87.90;;;;;;6326577;28;20226;-66
2022/06/06 09:03:53;;;;;;;2.00;1.50;;;27.10;88.00;;;;;;6326167;28;20256;-66
2022/06/06 09:07:36;;;;;;;2.33;1.70;;;27.10;88.20;;;;;;6326051;28;20554;-66
2022/06/06 09:11:11;;;;;;;2.47;1.70;;;26.80;87.60;;;;;;6304988;28;20241;-66
2022/06/06 09:14:41;;;;;;;2.03;1.67;;;26.60;89.40;;;;;;6322466;28;20278;-66
2022/06/06 09:18:29;;;;;;;2.63;1.57;;;26.80;87.50;;;;;;6323798;28;20226;-66
2022/06/06 09:21:55;;;;;;;1.40;1.30;;;27.10;86.00;;;;;;6319128;28;20222;-66
2022/06/06 09:25:19;;;;;;;3.23;1.43;;;27.30;85.60;;;;;;6322653;28;20678;-66
2022/06/06 09:29:01;;;;;;;2.97;1.40;;;27.30;84.00;;;;;;6325381;28;20257;-66
2022/06/06 09:32:40;;;;;;;1.70;1.60;;;27.30;85.30;;;;;;6325155;28;20240;-66
2022/06/06 09:35:58;;;;;;;1.60;1.50;;;27.30;85.10;;;;;;6325747;28;20228;-66
2022/06/06 09:39:11;;;;;;;1.93;1.37;;;27.50;86.10;;;;;;6325660;28;20222;-66
2022/06/06 09:42:37;;;;;;;1.70;1.57;;;27.40;84.90;;;;;;6325615;28;20226;-66
2022/06/06 09:46:23;;;;;;;2.90;1.63;;;27.30;84.60;;;;;;6325561;28;20229;-66
2022/06/06 09:50:00;;;;;;;1.57;1.30;;;27.40;83.40;;;;;;6262806;28;20702;-66
2022/06/06 09:53:33;;;;;;;2.97;1.63;;;27.70;81.00;;;;;;6325108;28;20238;-66
2022/06/06 10:00:58;;;;;;;1.93;1.50;;;27.70;81.10;;;;;;6248137;28;20363;-65
2022/06/06 10:04:45;;;;;;;3.40;1.83;;;27.40;80.10;;;;;;6249650;28;20569;-65
2022/06/06 10:08:25;;;;;;;2.13;1.50;;;27.40;80.60;;;;;;6324732;28;20289;-65
2022/06/06 10:11:55;;;;;;;2.73;1.50;;;27.30;82.40;;;;;;6324066;28;20651;-65
2022/06/06 10:15:32;;;;;;;3.03;1.90;;;27.10;82.30;;;;;;6322127;28;20235;-65
2022/06/06 10:18:57;;;;;;;3.07;1.73;;;27.10;79.80;;;;;;6324839;28;20546;-65
2022/06/06 10:22:31;;;;;;;1.80;1.40;;;27.20;82.20;;;;;;6324533;28;20222;-66
2022/06/06 10:26:04;;;;;;;1.60;1.33;;;27.30;83.20;;;;;;6324940;28;20234;-66
2022/06/06 10:33:40;;;;;;;2.80;1.80;;;27.30;82.50;;;;;;6323995;28;20234;-66
2022/06/06 10:37:08;;;;;;;2.03;1.57;;;27.30;80.90;;;;;;6304971;28;20670;-66
2022/06/06 10:40:41;;;;;;;2.47;1.70;;;27.40;81.00;;;;;;6324243;28;20222;-65
2022/06/06 10:44:13;;;;;;;2.10;1.70;;;27.40;80.70;;;;;;6324369;28;20234;-64
2022/06/06 10:47:26;;;;;;;2.70;1.63;;;27.10;81.40;;;;;;6324519;28;20206;-64
2022/06/06 10:51:36;;;;;;;1.93;1.63;;;26.90;82.20;;;;;;6324253;28;20221;-64
2022/06/06 10:54:53;;;;;;;2.70;1.43;;;26.90;80.60;;;;;;6323872;28;20245;-64
2022/06/06 10:58:46;;;;;;;1.90;1.57;;;27.10;79.20;;;;;;6324303;28;20241;-64
2022/06/06 11:02:23;;;;;;;2.07;1.80;;;27.30;78.00;;;;;;6323930;28;20233;-64
2022/06/06 11:06:17;;;;;;;2.33;2.13;;;27.50;75.60;;;;;;6324130;28;20225;-64
2022/06/06 11:10:11;;;;;;;2.00;1.70;;;27.60;75.00;;;;;;6293194;28;20244;-63
2022/06/06 11:13:36;;;;;;;2.07;1.90;;;27.60;74.20;;;;;;6308611;28;20679;-63
2022/06/06 11:17:18;;;;;;;2.90;2.10;;;27.90;74.80;;;;;;6329075;28;20225;-62
2022/06/06 11:21:09;;;;;;;3.63;2.50;;;28.10;73.40;;;;;;6301121;28;20628;-63
2022/06/06 11:24:24;;;;;;;1.80;1.70;;;28.10;73.90;;;;;;6309129;28;20236;-63
2022/06/06 11:28:03;;;;;;;2.50;2.17;;;28.20;73.10;;;;;;6313788;28;20227;-62
2022/06/06 11:31:37;;;;;;;2.20;1.90;;;28.20;73.10;;;;;;6325157;28;20321;-64
2022/06/06 11:35:08;;;;;;;3.53;1.90;;;28.40;72.30;;;;;;6328378;28;20564;-64
2022/06/06 11:38:47;;;;;;;1.70;1.60;;;28.30;71.90;;;;;;6330005;28;20226;-63
2022/06/06 11:42:26;;;;;;;3.40;2.20;;;28.10;72.70;;;;;;6329716;28;20234;-63
2022/06/06 11:45:54;;;;;;;2.40;2.20;;;28.10;72.20;;;;;;6327563;28;20222;-63
2022/06/06 11:49:46;;;;;;;2.13;1.93;;;28.00;72.90;;;;;;6325788;28;20531;-65
2022/06/06 11:53:28;;;;;;;2.23;2.13;;;28.20;71.90;;;;;;6295025;28;20322;-63
2022/06/06 11:57:00;;;;;;;2.63;1.67;;;28.30;70.70;;;;;;6326088;28;20221;-63
2022/06/06 12:00:32;;;;;;;4.53;2.20;;;28.20;70.80;;;;;;6326160;28;20234;-63
2022/06/06 12:04:05;;;;;;;2.40;2.20;;;28.20;71.20;;;;;;6315100;28;20236;-64
2022/06/06 12:07:42;;;;;;;2.03;1.87;;;28.30;72.00;;;;;;6267494;28;20556;-64
2022/06/06 12:10:57;;;;;;;1.93;1.60;;;28.10;72.00;;;;;;6327438;28;20226;-64
2022/06/06 12:14:39;;;;;;;2.10;2.00;;;28.00;71.80;;;;;;6327107;28;20222;-64
2022/06/06 12:18:04;;;;;;;3.10;2.03;;;27.80;72.20;;;;;;6327608;28;20240;-64
2022/06/06 12:21:26;;;;;;;4.73;1.73;;;27.90;72.70;;;;;;6326789;28;20228;-64
2022/06/06 12:25:00;;;;;;;2.73;2.23;;;28.00;71.20;;;;;;6327552;28;20225;-63
2022/06/06 12:28:35;;;;;;;2.20;2.03;;;28.30;71.00;;;;;;6318322;28;20237;-64
2022/06/06 12:31:53;;;;;;;2.43;1.70;;;28.60;70.70;;;;;;6322890;28;20234;-64
2022/06/06 12:35:04;;;;;;;2.90;2.07;;;28.60;70.20;;;;;;6327297;28;20233;-63
2022/06/06 12:38:36;;;;;;;3.27;1.93;;;28.60;70.20;;;;;;6326864;28;20218;-63
2022/06/06 12:41:53;;;;;;;2.60;2.10;;;28.50;68.80;;;;;;6326934;28;20226;-63
2022/06/06 12:45:13;;;;;;;2.00;1.90;;;28.40;69.60;;;;;;6326342;28;20539;-63
2022/06/06 12:48:49;;;;;;;3.17;2.00;;;28.30;69.70;;;;;;6326225;28;20226;-63
2022/06/06 12:52:04;;;;;;;2.40;2.20;;;28.40;70.10;;;;;;6326409;28;20692;-63
2022/06/06 12:55:33;;;;;;;2.33;2.10;;;28.50;68.60;;;;;;6326713;28;20222;-64
2022/06/06 12:58:42;;;;;;;2.27;2.07;;;28.80;68.10;;;;;;6326583;28;20230;-63
2022/06/06 13:01:54;;;;;;;2.70;2.10;;;29.20;67.20;;;;;;6327017;28;20230;-63
2022/06/06 13:05:25;;;;;;;2.87;2.27;;;29.40;66.00;;;;;;6326857;28;20226;-65
2022/06/06 13:08:50;;;;;;;1.80;1.70;;;29.40;63.80;;;;;;6326116;28;20221;-64
2022/06/06 13:12:06;;;;;;;2.80;2.50;;;29.40;64.70;;;;;;6325788;28;20580;-64
2022/06/06 13:15:20;;;;;;;2.40;2.20;;;29.50;64.50;;;;;;6325975;28;20683;-64
2022/06/06 13:18:40;;;;;;;2.33;1.83;;;29.70;64.30;;;;;;6326475;28;20229;-64
2022/06/06 13:21:59;;;;;;;2.67;1.93;;;29.80;63.90;;;;;;6326193;28;20226;-64
2022/06/06 13:25:15;;;;;;;4.63;1.60;;;29.50;64.10;;;;;;6326239;28;20236;-65
2022/06/06 13:28:21;;;;;;;2.63;2.10;;;29.20;64.30;;;;;;6325619;28;20236;-64
2022/06/06 13:31:37;;;;;;;1.90;1.77;;;28.80;65.80;;;;;;6320924;28;20225;-64
2022/06/06 13:34:53;;;;;;;3.77;2.10;;;28.50;67.30;;;;;;6325193;28;20241;-64
2022/06/06 13:38:11;;;;;;;2.90;1.97;;;28.30;66.00;;;;;;6325436;28;20221;-64
2022/06/06 13:41:25;;;;;;;3.17;1.93;;;28.40;66.70;;;;;;6325707;28;20605;-64
2022/06/06 13:45:04;;;;;;;2.10;1.93;;;28.40;65.40;;;;;;6325451;28;20230;-64
2022/06/06 13:48:45;;;;;;;2.30;2.10;;;28.40;64.60;;;;;;6291705;28;20301;-64
2022/06/06 13:52:07;;;;;;;2.77;2.57;;;28.40;65.10;;;;;;6325483;28;20675;-63
2022/06/06 13:55:28;;;;;;;2.77;2.40;;;28.50;66.80;;;;;;6326680;28;20226;-63
2022/06/06 13:58:45;;;;;;;3.63;2.20;;;28.50;67.60;;;;;;6326420;28;20690;-62
2022/06/06 14:02:00;;;;;;;2.00;1.80;;;28.10;68.80;;;;;;6327131;28;20241;-63
2022/06/06 14:05:20;;;;;;;3.17;2.57;;;27.90;69.40;;;;;;6326082;28;20224;-63
2022/06/06 14:08:24;;;;;;;2.13;1.80;;;28.10;68.70;;;;;;6327087;28;20226;-64
2022/06/06 14:12:02;;;;;;;2.60;2.40;;;28.10;69.00;;;;;;6326609;28;20228;-64
2022/06/06 14:15:10;;;;;;;2.97;2.40;;;28.00;69.20;;;;;;6325183;28;20320;-64
2022/06/06 14:18:18;;;;;;;2.60;2.17;;;28.00;69.30;;;;;;6325363;28;20230;-65
2022/06/06 14:21:32;;;;;;;2.70;2.50;;;27.90;69.30;;;;;;6325330;28;20229;-64
2022/06/06 14:24:37;;;;;;;3.83;2.00;;;27.80;69.90;;;;;;6325295;28;20221;-64
2022/06/06 14:27:41;;;;;;;2.57;2.37;;;27.50;70.90;;;;;;6324721;28;20222;-64
2022/06/06 14:30:44;;;;;;;2.50;2.30;;;27.40;71.40;;;;;;6324678;28;20222;-64
2022/06/06 14:33:54;;;;;;;2.77;2.50;;;27.30;71.80;;;;;;6324645;28;20236;-64
2022/06/06 14:37:12;;;;;;;2.60;2.20;;;27.30;72.60;;;;;;6315112;28;20236;-64
2022/06/06 14:40:35;;;;;;;3.20;2.47;;;27.50;72.70;;;;;;6324617;28;20226;-64
2022/06/06 14:43:49;;;;;;;2.50;2.10;;;27.70;71.50;;;;;;6325333;28;20691;-64
2022/06/06 14:46:54;;;;;;;2.47;2.27;;;27.70;72.50;;;;;;6329817;28;20236;-64
2022/06/06 14:53:36;;;;;;;2.10;1.97;;;27.70;73.30;;;;;;6329530;28;20225;-64
2022/06/06 14:56:46;;;;;;;2.10;2.00;;;27.60;72.30;;;;;;6330174;28;20226;-63
2022/06/06 14:59:51;;;;;;;2.53;2.13;;;27.60;72.50;;;;;;6330067;28;20576;-65
2022/06/06 15:03:02;;;;;;;2.70;2.50;;;27.70;72.20;;;;;;6330432;28;20229;-63
2022/06/06 15:06:10;;;;;;;2.00;1.90;;;27.70;72.00;;;;;;6328571;28;20234;-63
2022/06/06 15:09:33;;;;;;;3.33;2.37;;;27.60;71.50;;;;;;6327839;28;20356;-63
2022/06/06 15:12:37;;;;;;;2.50;2.10;;;27.70;71.30;;;;;;6328493;28;20254;-63
2022/06/06 15:15:40;;;;;;;2.30;2.10;;;27.60;71.20;;;;;;6328689;28;20240;-64
2022/06/06 15:18:47;;;;;;;3.30;1.80;;;27.60;71.40;;;;;;6328896;28;20233;-63
2022/06/06 15:21:52;;;;;;;2.70;2.50;;;27.60;70.80;;;;;;6328509;28;20234;-64
2022/06/06 15:24:57;;;;;;;3.43;1.93;;;27.60;70.80;;;;;;6328416;28;20228;-64
2022/06/06 15:28:20;;;;;;;5.33;2.40;;;27.60;71.80;;;;;;6328693;28;20244;-65
2022/06/06 15:31:38;;;;;;;1.97;1.87;;;27.60;72.50;;;;;;6328374;28;20230;-65
2022/06/06 15:34:56;;;;;;;2.40;2.00;;;27.60;72.20;;;;;;6327971;28;20241;-64
2022/06/06 15:38:12;;;;;;;2.90;2.10;;;27.50;72.20;;;;;;6328291;28;20222;-64
2022/06/06 15:41:27;;;;;;;4.80;1.90;;;27.60;72.20;;;;;;6319663;28;20702;-64
2022/06/06 15:44:40;;;;;;;2.40;2.20;;;27.80;70.90;;;;;;6324626;28;20236;-64
2022/06/06 15:47:52;;;;;;;3.67;2.50;;;27.80;71.00;;;;;;6325466;28;20674;-64
2022/06/06 15:51:03;;;;;;;2.80;2.60;;;27.90;71.10;;;;;;6324791;28;20214;-64
2022/06/06 15:54:22;;;;;;;2.00;1.90;;;27.90;71.10;;;;;;6320536;28;20222;-64
2022/06/06 15:57:38;;;;;;;2.60;2.40;;;28.00;71.20;;;;;;6324245;28;20670;-64
2022/06/06 16:00:55;;;;;;;1.93;1.83;;;28.00;69.50;;;;;;6313098;28;20234;-64
2022/06/06 16:04:13;;;;;;;2.57;2.10;;;28.00;69.10;;;;;;6307778;28;20230;-64
2022/06/06 16:07:24;;;;;;;2.30;2.10;;;27.80;69.60;;;;;;6327005;28;20218;-63
2022/06/06 16:10:34;;;;;;;2.43;2.20;;;27.50;70.50;;;;;;6316313;28;20217;-64
2022/06/06 16:13:56;;;;;;;3.83;2.60;;;27.50;70.80;;;;;;6314756;28;20631;-64
2022/06/06 16:17:03;;;;;;;3.60;2.20;;;27.50;70.80;;;;;;6323327;28;20686;-63
2022/06/06 16:20:27;;;;;;;3.13;2.40;;;27.50;70.80;;;;;;6311806;28;20241;-64
2022/06/06 16:23:36;;;;;;;2.07;1.97;;;27.60;70.80;;;;;;6322401;28;20225;-64
2022/06/06 16:26:45;;;;;;;3.10;2.80;;;27.70;70.40;;;;;;6323036;28;20229;-64
2022/06/06 16:29:54;;;;;;;3.30;2.50;;;27.70;70.10;;;;;;6320825;28;20233;-64
2022/06/06 16:33:21;;;;;;;2.20;2.00;;;27.60;70.40;;;;;;6320415;28;20230;-64
2022/06/06 16:36:54;;;;;;;2.20;2.00;;;27.50;70.80;;;;;;6301640;28;20230;-64
2022/06/06 16:39:58;;;;;;;2.73;1.80;;;27.40;72.40;;;;;;6302024;28;20229;-65
2022/06/06 16:51:26;;;;;;;3.93;2.70;;;27.10;74.90;;;;;;6302529;28;20237;-64
2022/06/06 16:54:42;;;;;;;2.70;2.50;;;27.20;74.90;;;;;;6290589;28;20227;-65
2022/06/06 16:57:53;;;;;;;2.60;2.40;;;27.40;74.80;;;;;;6301912;28;20227;-65
2022/06/06 17:00:58;;;;;;;2.90;2.60;;;27.50;74.30;;;;;;6301722;28;20238;-63
2022/06/06 17:04:12;;;;;;;3.60;2.60;;;27.60;74.00;;;;;;6301197;28;20222;-63
2022/06/06 17:07:46;;;;;;;2.57;2.37;;;27.70;73.70;;;;;;6300635;28;20234;-63
2022/06/06 17:10:56;;;;;;;2.70;2.50;;;27.80;74.10;;;;;;6300880;28;20309;-63
2022/06/06 17:14:03;;;;;;;2.80;2.60;;;27.70;74.30;;;;;;6300563;28;20276;-64
2022/06/06 17:17:15;;;;;;;2.87;2.67;;;27.70;74.60;;;;;;6300705;28;20572;-64
2022/06/06 17:20:29;;;;;;;2.80;2.60;;;27.80;74.70;;;;;;6301139;28;20191;-64
2022/06/06 17:23:33;;;;;;;2.50;2.30;;;27.70;75.10;;;;;;6300842;28;20227;-64
2022/06/06 17:26:41;;;;;;;2.20;2.10;;;27.70;75.00;;;;;;6300460;28;20549;-63
2022/06/06 17:30:00;;;;;;;2.90;2.30;;;27.60;75.40;;;;;;6300420;28;20242;-63
2022/06/06 17:33:16;;;;;;;2.30;2.10;;;27.40;75.90;;;;;;6300579;28;20270;-64
2022/06/06 17:36:27;;;;;;;3.53;2.60;;;27.30;76.50;;;;;;6300455;28;20227;-64
2022/06/06 17:39:41;;;;;;;2.67;2.47;;;27.10;77.40;;;;;;6300401;28;20226;-64